createdAt,value
2018-06-24T00:02:02.673Z,3.50
2018-06-24T00:04:31.195Z,3.97
2018-06-24T00:06:59.910Z,3.23
2018-06-24T00:09:28.409Z,3.57
2018-06-24T00:11:56.847Z,3.93
2018-06-24T00:14:25.398Z,4.00
2018-06-24T00:16:53.902Z,4.20
2018-06-24T00:19:22.315Z,4.13
2018-06-24T00:21:50.741Z,3.87
2018-06-24T00:24:19.211Z,3.50
2018-06-24T00:26:47.703Z,3.47
2018-06-24T00:29:16.142Z,3.80
2018-06-24T00:31:44.689Z,3.73
2018-06-24T00:34:13.109Z,3.40
2018-06-24T00:36:41.585Z,4.20
2018-06-24T00:39:10.653Z,3.77
2018-06-24T00:41:39.627Z,3.90
2018-06-24T00:44:08.081Z,3.63
2018-06-24T00:46:36.704Z,3.87
2018-06-24T00:49:05.341Z,3.50
2018-06-24T00:51:33.760Z,3.77
2018-06-24T00:54:02.288Z,4.17
2018-06-24T00:56:30.673Z,3.77
2018-06-24T00:58:59.136Z,4.00
2018-06-24T01:01:27.557Z,4.10
2018-06-24T01:03:56.274Z,3.90
2018-06-24T01:06:24.733Z,4.07
2018-06-24T01:08:53.277Z,3.80
2018-06-24T01:11:21.701Z,3.83
2018-06-24T01:13:50.109Z,3.87
2018-06-24T01:16:18.533Z,3.93
2018-06-24T01:18:46.957Z,4.17
2018-06-24T01:21:15.403Z,4.20
2018-06-24T01:23:43.886Z,4.17
2018-06-24T01:26:12.368Z,4.60
2018-06-24T01:28:40.754Z,4.10
2018-06-24T01:31:09.296Z,3.93
2018-06-24T01:33:37.746Z,4.10
2018-06-24T01:36:06.153Z,4.93
2018-06-24T01:38:34.674Z,4.73
2018-06-24T01:41:03.157Z,3.83
2018-06-24T01:43:31.655Z,3.90
2018-06-24T01:46:00.088Z,4.10
2018-06-24T01:48:28.529Z,4.17
2018-06-24T01:50:56.933Z,3.87
2018-06-24T01:53:25.417Z,4.10
2018-06-24T01:55:53.812Z,4.10
2018-06-24T01:58:22.247Z,4.33
2018-06-24T02:00:50.814Z,4.17
2018-06-24T02:03:19.287Z,4.70
2018-06-24T02:05:47.755Z,4.53
2018-06-24T02:08:16.229Z,4.87
2018-06-24T02:10:44.694Z,4.97
2018-06-24T02:13:13.195Z,4.77
2018-06-24T02:15:41.599Z,4.73
2018-06-24T02:18:10.015Z,5.17
2018-06-24T02:20:38.477Z,4.93
2018-06-24T02:23:06.879Z,5.10
2018-06-24T02:25:35.289Z,4.63
2018-06-24T02:28:03.839Z,5.27
2018-06-24T02:30:32.254Z,4.80
2018-06-24T02:33:00.655Z,5.10
2018-06-24T02:35:29.110Z,5.30
2018-06-24T02:37:57.528Z,5.50
2018-06-24T02:40:26.047Z,5.43
2018-06-24T02:42:54.572Z,5.13
2018-06-24T02:45:23.102Z,5.57
2018-06-24T02:47:51.491Z,5.73
2018-06-24T02:50:19.937Z,5.40
2018-06-24T02:52:48.319Z,5.00
2018-06-24T02:55:16.773Z,5.80
2018-06-24T02:57:45.173Z,6.40
2018-06-24T03:00:13.654Z,5.70
2018-06-24T03:02:42.211Z,6.40
2018-06-24T03:05:10.717Z,6.33
2018-06-24T03:07:39.206Z,6.90
2018-06-24T03:10:07.662Z,6.23
2018-06-24T03:12:36.200Z,6.73
2018-06-24T03:15:04.901Z,6.70
2018-06-24T03:17:33.334Z,6.80
2018-06-24T03:20:01.806Z,6.60
2018-06-24T03:22:31.689Z,6.67
2018-06-24T03:25:00.171Z,6.40
2018-06-24T03:27:28.593Z,6.63
2018-06-24T03:29:57.056Z,6.70
2018-06-24T03:32:25.574Z,7.10
2018-06-24T03:34:54.093Z,6.83
2018-06-24T03:37:22.582Z,6.60
2018-06-24T03:39:51.032Z,7.20
2018-06-24T03:42:20.113Z,6.43
2018-06-24T03:44:50.948Z,6.73
2018-06-24T03:47:19.431Z,6.87
2018-06-24T03:49:47.953Z,7.33
2018-06-24T03:52:16.421Z,7.10
2018-06-24T03:54:44.978Z,7.70
2018-06-24T03:57:13.377Z,6.80
2018-06-24T03:59:41.793Z,7.20
2018-06-24T04:02:10.321Z,7.23
2018-06-24T04:04:38.931Z,7.30
2018-06-24T04:07:07.439Z,7.10
2018-06-24T04:09:36.007Z,7.83
2018-06-24T04:12:04.663Z,7.00
2018-06-24T04:14:33.162Z,6.83
2018-06-24T04:17:01.618Z,7.50
2018-06-24T04:19:30.361Z,6.60
2018-06-24T04:21:58.885Z,6.60
2018-06-24T04:24:27.313Z,6.63
2018-06-24T04:26:55.701Z,6.67
2018-06-24T04:29:24.213Z,6.60
2018-06-24T04:31:52.693Z,7.07
2018-06-24T04:34:22.012Z,7.57
2018-06-24T04:36:50.487Z,7.40
2018-06-24T04:39:19.075Z,7.50
2018-06-24T04:41:47.638Z,7.60
2018-06-24T04:44:16.062Z,8.83
2018-06-24T04:46:44.602Z,7.43
2018-06-24T04:49:13.048Z,6.90
2018-06-24T04:51:41.521Z,6.63
2018-06-24T04:54:10.002Z,7.10
2018-06-24T04:56:38.418Z,7.60
2018-06-24T04:59:06.874Z,8.33
2018-06-24T05:01:35.336Z,6.93
2018-06-24T05:04:03.811Z,6.83
2018-06-24T05:06:32.356Z,6.80
2018-06-24T05:09:00.755Z,6.60
2018-06-24T05:11:29.198Z,6.73
2018-06-24T05:13:57.609Z,6.63
2018-06-24T05:16:26.020Z,6.97
2018-06-24T05:18:54.619Z,7.30
2018-06-24T05:21:23.058Z,6.00
2018-06-24T05:23:51.520Z,6.23
2018-06-24T05:26:19.968Z,6.50
2018-06-24T05:28:48.405Z,6.57
2018-06-24T05:31:16.854Z,6.67
2018-06-24T05:33:45.423Z,6.17
2018-06-24T05:36:13.902Z,6.50
2018-06-24T05:38:42.388Z,5.90
2018-06-24T05:41:10.880Z,6.33
2018-06-24T05:43:39.314Z,6.53
2018-06-24T05:46:07.770Z,7.07
2018-06-24T05:48:36.245Z,6.27
2018-06-24T05:51:04.728Z,6.60
2018-06-24T05:53:33.189Z,6.13
2018-06-24T05:56:01.712Z,6.53
2018-06-24T05:58:29.958Z,6.40
2018-06-24T06:00:58.431Z,7.00
2018-06-24T06:03:26.910Z,6.70
2018-06-24T06:05:55.420Z,7.17
2018-06-24T06:08:23.809Z,7.20
2018-06-24T06:10:52.233Z,7.13
2018-06-24T06:13:20.663Z,7.30
2018-06-24T06:15:49.121Z,7.60
2018-06-24T06:18:17.543Z,7.90
2018-06-24T06:20:46.119Z,7.10
2018-06-24T06:23:14.612Z,7.53
2018-06-24T06:25:43.042Z,7.17
2018-06-24T06:28:11.477Z,7.50
2018-06-24T06:30:39.900Z,7.10
2018-06-24T06:33:08.338Z,7.40
2018-06-24T06:35:36.826Z,7.30
2018-06-24T06:38:06.444Z,7.57
2018-06-24T06:40:34.829Z,6.80
2018-06-24T06:43:03.585Z,7.47
2018-06-24T06:45:33.228Z,7.33
2018-06-24T06:48:01.613Z,8.10
2018-06-24T06:50:30.015Z,7.47
2018-06-24T06:52:58.414Z,7.63
2018-06-24T06:55:26.887Z,7.27
2018-06-24T06:57:55.372Z,7.77
2018-06-24T07:00:23.793Z,7.80
2018-06-24T07:02:52.336Z,8.17
2018-06-24T07:05:20.843Z,7.97
2018-06-24T07:07:49.331Z,8.90
2018-06-24T07:10:17.859Z,8.63
2018-06-24T07:12:46.377Z,7.57
2018-06-24T07:15:14.855Z,8.13
2018-06-24T07:17:43.256Z,8.77
2018-06-24T07:20:11.811Z,8.40
2018-06-24T07:22:40.365Z,7.97
2018-06-24T07:25:10.076Z,7.47
2018-06-24T07:27:38.780Z,8.23
2018-06-24T07:30:07.240Z,8.07
2018-06-24T07:32:35.819Z,8.33
2018-06-24T07:35:04.402Z,8.07
2018-06-24T07:37:32.832Z,9.80
2018-06-24T07:40:01.308Z,8.10
2018-06-24T07:42:29.986Z,6.60
2018-06-24T07:44:58.465Z,7.70
2018-06-24T07:47:26.999Z,7.23
2018-06-24T07:49:55.424Z,7.60
2018-06-24T07:52:24.097Z,6.60
2018-06-24T07:54:52.615Z,7.23
2018-06-24T07:57:21.249Z,7.77
2018-06-24T07:59:49.711Z,7.47
2018-06-24T08:02:18.274Z,6.23
2018-06-24T08:04:46.971Z,6.10
2018-06-24T08:07:15.771Z,5.60
2018-06-24T08:09:44.504Z,5.27
2018-06-24T08:12:12.958Z,5.13
2018-06-24T08:14:41.480Z,5.30
2018-06-24T08:17:10.064Z,4.93
2018-06-24T08:19:38.640Z,5.63
2018-06-24T08:22:07.109Z,5.27
2018-06-24T08:24:35.657Z,4.90
2018-06-24T08:27:04.186Z,4.60
2018-06-24T08:29:32.730Z,4.80
2018-06-24T08:32:01.369Z,5.57
2018-06-24T08:34:29.922Z,5.00
2018-06-24T08:36:58.601Z,5.20
2018-06-24T08:39:27.152Z,5.33
2018-06-24T08:41:56.039Z,6.17
2018-06-24T08:44:24.735Z,4.93
2018-06-24T08:46:53.485Z,4.87
2018-06-24T08:49:22.027Z,4.67
2018-06-24T08:51:50.539Z,4.23
2018-06-24T08:54:19.159Z,4.53
2018-06-24T08:56:47.673Z,4.87
2018-06-24T08:59:16.196Z,4.87
2018-06-24T09:01:44.722Z,5.40
2018-06-24T09:04:13.257Z,4.93
2018-06-24T09:06:41.860Z,5.20
2018-06-24T09:09:11.180Z,5.00
2018-06-24T09:11:39.761Z,4.83
2018-06-24T09:14:08.296Z,5.03
2018-06-24T09:16:36.869Z,3.63
2018-06-24T09:19:06.294Z,5.10
2018-06-24T09:21:34.951Z,4.53
2018-06-24T09:24:03.617Z,4.13
2018-06-24T09:26:32.284Z,4.27
2018-06-24T09:29:01.093Z,4.27
2018-06-24T09:31:29.882Z,4.20
2018-06-24T09:33:58.831Z,3.80
2018-06-24T09:36:27.468Z,3.97
2018-06-24T09:38:56.075Z,4.07
2018-06-24T09:41:24.678Z,3.90
2018-06-24T09:43:53.292Z,4.10
2018-06-24T09:46:21.874Z,4.20
2018-06-24T09:48:50.158Z,4.70
2018-06-24T09:51:18.755Z,4.63
2018-06-24T09:53:47.469Z,4.90
2018-06-24T09:56:16.021Z,4.43
2018-06-24T09:58:44.582Z,4.53
2018-06-24T10:01:13.090Z,4.37
2018-06-24T10:03:41.684Z,4.17
2018-06-24T10:06:10.329Z,4.20
2018-06-24T10:08:39.134Z,4.23
2018-06-24T10:11:07.709Z,3.77
2018-06-24T10:13:36.259Z,4.07
2018-06-24T10:16:04.856Z,3.50
2018-06-24T10:18:33.350Z,3.60
2018-06-24T10:21:01.853Z,3.40
2018-06-24T10:23:30.439Z,4.83
2018-06-24T10:25:58.714Z,3.50
2018-06-24T10:28:27.288Z,3.50
2018-06-24T10:30:55.921Z,4.00
2018-06-24T10:33:24.528Z,3.73
2018-06-24T10:35:53.251Z,3.63
2018-06-24T10:38:21.886Z,3.50
2018-06-24T10:40:50.549Z,3.47
2018-06-24T10:43:19.163Z,3.30
2018-06-24T10:45:47.697Z,3.20
2018-06-24T10:48:16.297Z,3.50
2018-06-24T10:50:45.009Z,2.53
2018-06-24T10:53:13.587Z,2.97
2018-06-24T10:55:42.227Z,2.73
2018-06-24T10:58:10.813Z,2.47
2018-06-24T11:00:39.456Z,2.43
2018-06-24T11:03:07.936Z,2.30
2018-06-24T11:05:36.481Z,2.33
2018-06-24T11:08:05.261Z,2.60
2018-06-24T11:10:33.853Z,2.57
2018-06-24T11:13:02.351Z,2.50
2018-06-24T11:15:30.833Z,3.00
2018-06-24T11:17:59.413Z,3.20
2018-06-24T11:20:27.911Z,2.80
2018-06-24T11:22:56.343Z,3.30
2018-06-24T11:25:24.850Z,3.07
2018-06-24T11:27:53.600Z,2.90
2018-06-24T11:30:22.329Z,3.03
2018-06-24T11:32:50.929Z,2.67
2018-06-24T11:35:19.614Z,2.80
2018-06-24T11:37:48.305Z,2.67
2018-06-24T11:40:17.035Z,2.70
2018-06-24T11:42:45.645Z,2.40
2018-06-24T11:45:14.192Z,2.60
2018-06-24T11:47:42.709Z,2.33
2018-06-24T11:50:11.287Z,2.70
2018-06-24T11:52:39.883Z,2.40
2018-06-24T11:55:08.309Z,3.10
2018-06-24T11:57:36.803Z,2.80
2018-06-24T12:00:05.552Z,2.63
2018-06-24T12:02:34.122Z,2.73
2018-06-24T12:05:02.636Z,2.53
2018-06-24T12:07:31.157Z,2.30
2018-06-24T12:09:59.715Z,2.33
2018-06-24T12:12:28.425Z,2.20
2018-06-24T12:14:56.981Z,2.30
2018-06-24T12:17:27.724Z,2.80
2018-06-24T12:19:54.198Z,2.87
2018-06-24T12:22:22.805Z,2.47
2018-06-24T12:24:51.416Z,3.03
2018-06-24T12:27:19.867Z,2.70
2018-06-24T12:29:48.525Z,2.83
2018-06-24T12:32:17.313Z,3.30
2018-06-24T12:34:46.023Z,3.27
2018-06-24T12:37:14.723Z,2.77
2018-06-24T12:39:43.271Z,3.00
2018-06-24T12:42:11.816Z,3.10
2018-06-24T12:44:41.438Z,2.77
2018-06-24T12:47:10.081Z,3.00
2018-06-24T12:49:38.786Z,2.67
2018-06-24T12:52:07.506Z,2.83
2018-06-24T12:54:36.381Z,2.77
2018-06-24T12:57:05.391Z,3.57
2018-06-24T12:59:34.499Z,2.60
2018-06-24T13:02:03.626Z,2.80
2018-06-24T13:04:32.269Z,2.83
2018-06-24T13:07:00.832Z,3.30
2018-06-24T13:09:29.422Z,2.80
2018-06-24T13:11:58.024Z,2.67
2018-06-24T13:14:26.548Z,3.73
2018-06-24T13:16:55.059Z,2.67
2018-06-24T13:19:23.752Z,2.90
2018-06-24T13:21:52.404Z,2.90
2018-06-24T13:24:21.087Z,3.30
2018-06-24T13:26:49.865Z,2.80
2018-06-24T13:29:18.461Z,3.00
2018-06-24T13:31:47.080Z,2.83
2018-06-24T13:34:15.776Z,3.03
2018-06-24T13:36:44.485Z,2.50
2018-06-24T13:39:13.090Z,2.50
2018-06-24T13:41:41.932Z,2.40
2018-06-24T13:44:10.798Z,2.20
2018-06-24T13:46:39.513Z,2.70
2018-06-24T13:49:08.233Z,2.20
2018-06-24T13:51:36.833Z,2.20
2018-06-24T13:54:05.430Z,2.10
2018-06-24T13:56:33.990Z,2.37
2018-06-24T13:59:02.692Z,2.20
2018-06-24T14:01:31.393Z,1.80
2018-06-24T14:04:00.104Z,3.20
2018-06-24T14:06:28.274Z,2.10
2018-06-24T14:08:56.814Z,1.87
2018-06-24T14:11:25.082Z,1.97
2018-06-24T14:13:53.909Z,1.87
2018-06-24T14:16:22.493Z,1.97
2018-06-24T14:18:51.035Z,1.63
2018-06-24T14:21:20.029Z,2.00
2018-06-24T14:23:48.698Z,1.50
2018-06-24T14:26:17.603Z,1.80
2018-06-24T14:28:46.522Z,1.47
2018-06-24T14:31:15.269Z,1.70
2018-06-24T14:33:44.093Z,1.80
2018-06-24T14:36:13.012Z,1.80
2018-06-24T14:38:42.324Z,1.63
2018-06-24T14:41:11.052Z,1.90
2018-06-24T14:43:40.700Z,1.67
2018-06-24T14:46:09.483Z,1.70
2018-06-24T14:48:38.639Z,1.50
2018-06-24T14:51:07.454Z,1.50
2018-06-24T14:53:36.444Z,1.60
2018-06-24T14:56:05.918Z,3.47
2018-06-24T14:58:35.685Z,1.67
2018-06-24T15:01:04.592Z,1.67
2018-06-24T15:03:33.468Z,1.50
2018-06-24T15:06:02.356Z,1.60
2018-06-24T15:08:32.566Z,1.90
2018-06-24T15:11:01.778Z,1.63
2018-06-24T15:13:30.491Z,2.63
2018-06-24T15:15:59.519Z,1.60
2018-06-24T15:18:28.592Z,1.50
2018-06-24T15:20:58.893Z,2.07
2018-06-24T15:23:27.832Z,1.90
2018-06-24T15:25:56.706Z,1.80
2018-06-24T15:28:25.818Z,2.10
2018-06-24T15:30:54.696Z,1.73
2018-06-24T15:33:23.811Z,1.80
2018-06-24T15:35:53.197Z,1.70
2018-06-24T15:38:22.061Z,2.13
2018-06-24T15:40:50.697Z,1.67
2018-06-24T15:43:21.563Z,1.57
2018-06-24T15:45:50.991Z,1.70
2018-06-24T15:48:19.697Z,5.30
2018-06-24T15:50:49.194Z,1.90
2018-06-24T15:53:18.162Z,2.03
2018-06-24T15:55:47.028Z,3.63
2018-06-24T15:58:15.895Z,6.03
2018-06-24T16:00:45.175Z,3.10
2018-06-24T16:03:13.948Z,7.00
2018-06-24T16:05:42.913Z,4.20
2018-06-24T16:08:11.395Z,4.30
2018-06-24T16:10:40.467Z,4.03
2018-06-24T16:13:09.455Z,3.70
2018-06-24T16:15:38.928Z,2.93
2018-06-24T16:18:07.841Z,2.97
2018-06-24T16:20:36.842Z,3.27
2018-06-24T16:23:05.741Z,2.40
2018-06-24T16:25:34.927Z,1.83
2018-06-24T16:28:05.334Z,2.00
2018-06-24T16:30:35.243Z,2.30
2018-06-24T16:33:04.396Z,2.30
2018-06-24T16:35:33.366Z,2.00
2018-06-24T16:38:02.296Z,2.27
2018-06-24T16:40:30.957Z,2.00
2018-06-24T16:42:59.649Z,2.20
2018-06-24T16:45:28.718Z,2.00
2018-06-24T16:47:58.120Z,1.90
2018-06-24T16:50:26.935Z,1.90
2018-06-24T16:52:55.836Z,2.20
2018-06-24T16:55:24.909Z,2.33
2018-06-24T16:57:54.109Z,2.07
2018-06-24T17:00:22.720Z,2.60
2018-06-24T17:02:51.576Z,2.03
2018-06-24T17:05:20.408Z,2.10
2018-06-24T17:07:49.203Z,1.87
2018-06-24T17:10:18.396Z,3.20
2018-06-24T17:12:47.128Z,3.20
2018-06-24T17:15:15.745Z,2.67
2018-06-24T17:17:44.643Z,13.63
2018-06-24T17:20:13.465Z,3.10
2018-06-24T17:22:43.015Z,3.63
2018-06-24T17:25:12.101Z,2.50
2018-06-24T17:27:40.782Z,2.33
2018-06-24T17:30:09.433Z,2.07
2018-06-24T17:32:38.184Z,2.20
2018-06-24T17:35:06.949Z,2.30
2018-06-24T17:37:35.614Z,2.43
2018-06-24T17:40:04.397Z,2.30
2018-06-24T17:42:33.220Z,2.53
2018-06-24T17:45:01.928Z,2.57
2018-06-24T17:47:30.643Z,2.57
2018-06-24T17:49:59.652Z,2.80
2018-06-24T17:52:28.763Z,2.80
2018-06-24T17:54:57.941Z,2.53
2018-06-24T17:57:26.628Z,3.00
2018-06-24T17:59:55.309Z,2.60
2018-06-24T18:02:24.627Z,2.93
2018-06-24T18:04:53.602Z,2.50
2018-06-24T18:07:22.572Z,2.90
2018-06-24T18:09:51.591Z,2.30
2018-06-24T18:12:20.686Z,2.10
2018-06-24T18:14:49.544Z,2.33
2018-06-24T18:17:19.272Z,2.00
2018-06-24T18:19:49.682Z,2.70
2018-06-24T18:22:18.748Z,2.13
2018-06-24T18:24:47.856Z,1.80
2018-06-24T18:27:17.599Z,2.10
2018-06-24T18:29:47.353Z,2.30
2018-06-24T18:32:16.827Z,2.60
2018-06-24T18:34:45.763Z,2.70
2018-06-24T18:37:14.477Z,4.47
2018-06-24T18:39:43.429Z,15.80
2018-06-24T18:42:12.463Z,12.60
2018-06-24T18:44:41.278Z,7.10
2018-06-24T18:47:10.192Z,7.53
2018-06-24T18:49:39.341Z,12.07
2018-06-24T18:52:08.622Z,6.43
2018-06-24T18:54:37.459Z,3.47
2018-06-24T18:57:06.909Z,2.80
2018-06-24T18:59:36.138Z,2.50
2018-06-24T19:02:05.328Z,2.23
2018-06-24T19:04:34.462Z,2.40
2018-06-24T19:07:03.940Z,2.90
2018-06-24T19:09:33.621Z,3.00
2018-06-24T19:12:02.292Z,2.93
2018-06-24T19:14:31.906Z,2.60
2018-06-24T19:17:01.517Z,2.60
2018-06-24T19:19:31.539Z,2.40
2018-06-24T19:22:01.017Z,2.40
2018-06-24T19:24:30.607Z,2.70
2018-06-24T19:26:59.869Z,2.30
2018-06-24T19:29:28.725Z,3.00
2018-06-24T19:31:57.992Z,3.20
2018-06-24T19:34:28.284Z,12.33
2018-06-24T19:36:57.526Z,2.80
2018-06-24T19:39:27.140Z,3.40
2018-06-24T19:41:56.609Z,3.10
2018-06-24T19:44:26.165Z,3.13
2018-06-24T19:46:55.098Z,3.10
2018-06-24T19:49:24.056Z,2.67
2018-06-24T19:51:53.010Z,2.50
2018-06-24T19:54:21.966Z,2.60
2018-06-24T19:56:50.703Z,2.60
2018-06-24T19:59:20.000Z,3.10
2018-06-24T20:01:48.945Z,3.20
2018-06-24T20:04:17.594Z,2.70
2018-06-24T20:06:46.809Z,3.10
2018-06-24T20:09:16.101Z,2.93
2018-06-24T20:11:45.374Z,2.90
2018-06-24T20:14:15.120Z,3.30
2018-06-24T20:16:44.706Z,2.93
2018-06-24T20:19:13.518Z,3.07
2018-06-24T20:21:44.876Z,2.83
2018-06-24T20:24:14.637Z,3.00
2018-06-24T20:26:43.483Z,3.03
2018-06-24T20:29:12.951Z,3.00
2018-06-24T20:31:41.832Z,2.83
2018-06-24T20:34:10.974Z,2.80
2018-06-24T20:36:39.960Z,3.33
2018-06-24T20:39:09.823Z,2.90
2018-06-24T20:41:38.758Z,3.00
2018-06-24T20:44:07.532Z,3.30
2018-06-24T20:46:36.802Z,3.83
2018-06-24T20:49:05.840Z,3.23
2018-06-24T20:51:34.867Z,3.23
2018-06-24T20:54:03.825Z,3.67
2018-06-24T20:56:32.664Z,3.33
2018-06-24T20:59:01.721Z,3.27
2018-06-24T21:01:30.313Z,4.80
2018-06-24T21:03:58.939Z,3.50
2018-06-24T21:06:27.577Z,3.37
2018-06-24T21:08:56.484Z,3.50
2018-06-24T21:11:25.162Z,3.97
2018-06-24T21:13:53.766Z,3.60
2018-06-24T21:16:22.807Z,4.00
2018-06-24T21:18:51.705Z,4.13
2018-06-24T21:21:20.199Z,4.40
2018-06-24T21:23:49.327Z,5.03
2018-06-24T21:26:18.697Z,4.50
2018-06-24T21:28:47.184Z,4.90
2018-06-24T21:31:15.785Z,4.23
2018-06-24T21:33:44.353Z,4.70
2018-06-24T21:36:12.802Z,4.53
2018-06-24T21:38:41.295Z,4.60
2018-06-24T21:41:09.772Z,4.80
2018-06-24T21:43:38.243Z,4.77
2018-06-24T21:46:08.794Z,5.37
2018-06-24T21:48:37.413Z,5.40
2018-06-24T21:51:05.848Z,5.47
2018-06-24T21:53:34.365Z,5.63
2018-06-24T21:56:03.313Z,5.37
2018-06-24T21:58:32.133Z,5.77
2018-06-24T22:01:03.676Z,5.37
2018-06-24T22:03:32.263Z,5.50
2018-06-24T22:06:00.804Z,6.13
2018-06-24T22:08:29.322Z,6.00
2018-06-24T22:11:00.529Z,6.23
2018-06-24T22:13:29.348Z,7.40
2018-06-24T22:15:59.867Z,6.67
2018-06-24T22:18:28.139Z,7.03
2018-06-24T22:20:56.580Z,7.77
2018-06-24T22:23:27.259Z,7.90
2018-06-24T22:25:55.774Z,7.40
2018-06-24T22:28:24.425Z,7.07
2018-06-24T22:30:52.906Z,7.10
2018-06-24T22:33:21.333Z,8.03
2018-06-24T22:35:49.949Z,6.37
2018-06-24T22:38:18.535Z,7.17
2018-06-24T22:40:47.083Z,6.53
2018-06-24T22:43:15.568Z,7.00
2018-06-24T22:45:44.164Z,6.10
2018-06-24T22:48:13.217Z,7.00
2018-06-24T22:50:41.798Z,7.83
2018-06-24T22:53:10.312Z,7.80
2018-06-24T22:55:38.754Z,7.23
2018-06-24T22:58:07.330Z,7.27
2018-06-24T23:00:35.899Z,6.77
2018-06-24T23:03:05.112Z,6.90
2018-06-24T23:05:33.573Z,7.20
2018-06-24T23:08:02.960Z,7.70
2018-06-24T23:10:31.372Z,7.13
2018-06-24T23:12:59.825Z,8.13
2018-06-24T23:15:28.322Z,7.90
2018-06-24T23:17:57.131Z,7.80
2018-06-24T23:20:28.844Z,8.37
2018-06-24T23:22:57.392Z,7.97
2018-06-24T23:25:25.807Z,7.87
2018-06-24T23:27:54.209Z,8.13
2018-06-24T23:30:23.065Z,7.73
2018-06-24T23:32:51.480Z,7.67
2018-06-24T23:35:19.983Z,8.33
2018-06-24T23:37:48.423Z,7.27
2018-06-24T23:40:17.065Z,7.10
2018-06-24T23:42:45.859Z,6.67
2018-06-24T23:45:14.395Z,6.80
2018-06-24T23:47:42.898Z,7.00
2018-06-24T23:50:11.637Z,7.33
2018-06-24T23:52:40.077Z,7.03
2018-06-24T23:55:08.646Z,6.90
2018-06-24T23:57:37.109Z,7.47
